Time;durP1;ratioP1;P1;durP2;ratioP2;P2;SDS_P1;SDS_P2;PMS_P1;PMS_P2;Temp;Humidity;BMP_temperature;BMP_pressure;BME280_temperature;BME280_humidity;BME280_pressure;Samples;Min_cycle;Max_cycle;Signal;HPM_P1;HPM_P2
2021/04/08 00:02:03;;;;;;;7.93;3.80;;;3.60;92.00;;;;;;5075350;28;20199;-81
2021/04/08 00:04:29;;;;;;;9.00;4.30;;;3.70;92.50;;;;;;5075719;28;20385;-81
2021/04/08 00:06:56;;;;;;;16.45;5.65;;;3.60;92.90;;;;;;5075743;28;20581;-81
2021/04/08 00:09:22;;;;;;;9.00;4.55;;;3.60;93.20;;;;;;5075936;28;20196;-81
2021/04/08 00:11:48;;;;;;;11.68;4.90;;;3.50;93.80;;;;;;5076664;28;20203;-80
2021/04/08 00:14:14;;;;;;;13.60;5.67;;;3.40;93.90;;;;;;5075827;28;20168;-81
2021/04/08 00:16:41;;;;;;;15.30;5.00;;;3.40;94.00;;;;;;5076455;28;20752;-81
2021/04/08 00:19:08;;;;;;;8.93;5.85;;;3.30;94.10;;;;;;5076607;28;20539;-81
2021/04/08 00:21:34;;;;;;;10.48;4.20;;;3.30;94.30;;;;;;5076033;28;20169;-81
2021/04/08 00:24:00;;;;;;;25.00;5.10;;;3.30;94.20;;;;;;5076311;28;20184;-81
2021/04/08 00:26:26;;;;;;;11.30;4.65;;;3.20;93.90;;;;;;5076271;28;20183;-82
2021/04/08 00:28:52;;;;;;;35.47;6.50;;;3.20;94.40;;;;;;5075335;28;20196;-81
2021/04/08 00:31:18;;;;;;;5.60;3.60;;;3.10;94.70;;;;;;5075714;28;20413;-81
2021/04/08 00:33:43;;;;;;;4.50;2.90;;;3.10;94.60;;;;;;5076173;28;20417;-82
2021/04/08 00:36:09;;;;;;;9.77;3.97;;;3.10;94.60;;;;;;5075515;28;20773;-81
2021/04/08 00:38:35;;;;;;;5.77;3.50;;;3.10;93.50;;;;;;5075741;28;20431;-81
2021/04/08 00:41:02;;;;;;;8.52;3.47;;;3.20;93.20;;;;;;5075723;28;20510;-81
2021/04/08 00:43:28;;;;;;;7.65;3.55;;;3.20;92.90;;;;;;5075149;28;20212;-81
2021/04/08 00:45:53;;;;;;;7.13;3.17;;;3.30;92.80;;;;;;5075158;28;20190;-82
2021/04/08 00:48:19;;;;;;;9.70;4.60;;;3.40;92.50;;;;;;5075239;28;20262;-81
2021/04/08 00:50:45;;;;;;;7.90;4.03;;;3.30;92.70;;;;;;5075465;28;20941;-81
2021/04/08 00:53:15;;;;;;;7.47;3.70;;;3.30;93.00;;;;;;5075095;28;20427;-81
2021/04/08 00:55:46;;;;;;;8.23;3.97;;;3.30;91.60;;;;;;5076103;28;20392;-80
2021/04/08 00:58:13;;;;;;;6.53;4.30;;;3.40;91.90;;;;;;5075342;28;20183;-81
2021/04/08 01:00:42;;;;;;;13.70;4.20;;;3.40;91.70;;;;;;5074979;28;20172;-80
2021/04/08 01:03:07;;;;;;;7.70;3.15;;;3.40;91.20;;;;;;5074607;28;20541;-80
2021/04/08 01:05:34;;;;;;;5.97;3.67;;;3.40;90.90;;;;;;5074563;28;20179;-81
2021/04/08 01:08:01;;;;;;;7.10;3.47;;;3.30;90.60;;;;;;5075469;28;20454;-81
2021/04/08 01:10:26;;;;;;;9.63;3.55;;;3.30;91.00;;;;;;5075139;28;20539;-81
2021/04/08 01:12:58;;;;;;;12.07;3.93;;;3.40;90.80;;;;;;5074699;28;20188;-81
2021/04/08 01:15:25;;;;;;;6.82;3.63;;;3.40;90.80;;;;;;5075259;28;20420;-80
2021/04/08 01:18:13;;;;;;;10.77;3.13;;;3.50;88.80;;;;;;5075168;28;20225;-81
2021/04/08 01:20:44;;;;;;;4.43;2.90;;;3.50;87.70;;;;;;5078532;28;20176;-81
2021/04/08 01:23:54;;;;;;;4.85;2.95;;;3.50;88.40;;;;;;5078094;28;20838;-81
2021/04/08 01:26:44;;;;;;;6.07;3.05;;;3.60;87.70;;;;;;5078331;28;20447;-81
2021/04/08 01:29:23;;;;;;;11.98;3.35;;;3.60;87.00;;;;;;5077880;28;20196;-82
2021/04/08 01:31:51;;;;;;;12.13;4.95;;;3.70;87.10;;;;;;5077275;28;20175;-81
2021/04/08 01:34:20;;;;;;;7.65;3.80;;;3.80;86.70;;;;;;5077577;28;20559;-81
2021/04/08 01:36:52;;;;;;;12.70;4.22;;;3.90;86.70;;;;;;5078604;28;20168;-81
2021/04/08 01:39:20;;;;;;;15.65;4.22;;;3.80;87.70;;;;;;5078167;28;20161;-80
2021/04/08 01:41:48;;;;;;;10.43;4.13;;;3.80;88.30;;;;;;5077834;28;20319;-81
2021/04/08 01:44:23;;;;;;;7.13;3.70;;;3.80;88.40;;;;;;5077898;28;20234;-81
2021/04/08 01:47:03;;;;;;;8.18;4.45;;;3.90;88.50;;;;;;5078195;28;20171;-81
2021/04/08 01:49:33;;;;;;;16.90;4.28;;;3.90;88.30;;;;;;5077960;28;20199;-81
2021/04/08 01:52:00;;;;;;;8.27;4.63;;;3.90;88.30;;;;;;5077735;28;20203;-81
2021/04/08 01:54:31;;;;;;;13.80;4.30;;;3.80;89.20;;;;;;5077860;28;20196;-80
2021/04/08 01:57:06;;;;;;;10.85;4.65;;;3.90;85.80;;;;;;5077708;28;20534;-80
2021/04/08 01:59:33;;;;;;;9.57;3.80;;;3.90;84.20;;;;;;5077699;28;20152;-81
2021/04/08 02:02:00;;;;;;;5.85;2.67;;;3.80;83.10;;;;;;5077311;28;20680;-81
2021/04/08 02:04:28;;;;;;;9.57;4.00;;;3.80;85.10;;;;;;5077865;28;20173;-81
2021/04/08 02:06:57;;;;;;;7.20;3.40;;;3.70;86.00;;;;;;5076914;28;20176;-81
2021/04/08 02:09:24;;;;;;;10.00;3.75;;;3.70;86.20;;;;;;5078000;28;20590;-81
2021/04/08 02:11:51;;;;;;;6.93;2.50;;;3.70;87.30;;;;;;5077769;28;20184;-81
2021/04/08 02:14:18;;;;;;;7.32;3.25;;;3.70;86.90;;;;;;5077588;28;20179;-80
2021/04/08 02:16:49;;;;;;;5.03;3.03;;;3.70;87.00;;;;;;5077687;28;20175;-81
2021/04/08 02:19:16;;;;;;;7.60;3.33;;;3.70;87.30;;;;;;5078471;28;20617;-80
2021/04/08 02:21:45;;;;;;;10.30;3.90;;;3.70;89.10;;;;;;5077565;28;20602;-80
2021/04/08 02:24:12;;;;;;;8.40;4.13;;;3.70;87.80;;;;;;5077191;28;20208;-81
2021/04/08 02:26:45;;;;;;;12.23;3.35;;;3.80;87.80;;;;;;5076948;28;20222;-81
2021/04/08 02:29:13;;;;;;;7.30;3.35;;;3.80;87.00;;;;;;5077229;28;20224;-81
2021/04/08 02:31:40;;;;;;;8.90;3.08;;;3.80;87.10;;;;;;5076223;28;20168;-81
2021/04/08 02:34:07;;;;;;;6.22;3.22;;;3.70;86.30;;;;;;5076787;28;20169;-81
2021/04/08 02:36:33;;;;;;;5.25;3.15;;;3.70;87.60;;;;;;5077033;28;20645;-81
2021/04/08 02:38:59;;;;;;;4.72;3.10;;;3.70;87.80;;;;;;5077125;28;20173;-81
2021/04/08 02:41:25;;;;;;;6.93;3.33;;;3.70;86.40;;;;;;5076823;28;20244;-81
2021/04/08 02:43:50;;;;;;;5.30;2.80;;;3.70;86.60;;;;;;5078467;28;20204;-81
2021/04/08 02:46:16;;;;;;;8.07;2.70;;;3.70;87.00;;;;;;5076585;28;20400;-81
2021/04/08 02:48:42;;;;;;;7.50;3.17;;;3.70;85.80;;;;;;5076672;28;20253;-81
2021/04/08 02:51:19;;;;;;;7.47;3.00;;;3.70;86.00;;;;;;5076438;28;20165;-80
2021/04/08 02:53:51;;;;;;;7.85;3.00;;;3.80;85.30;;;;;;5076524;28;20223;-81
2021/04/08 02:56:43;;;;;;;7.93;3.33;;;3.80;85.80;;;;;;5076341;28;20171;-81
2021/04/08 02:59:16;;;;;;;6.38;3.25;;;3.70;85.30;;;;;;5076098;28;20160;-80
2021/04/08 03:01:52;;;;;;;7.70;3.15;;;3.80;85.30;;;;;;5076395;28;20177;-79
2021/04/08 03:04:21;;;;;;;6.75;2.83;;;3.80;85.60;;;;;;5076624;28;20164;-81
2021/04/08 03:06:49;;;;;;;7.80;3.33;;;3.80;85.80;;;;;;5076696;28;20183;-80
2021/04/08 03:09:15;;;;;;;6.65;2.72;;;3.80;84.40;;;;;;5076380;28;20224;-80
2021/04/08 03:11:41;;;;;;;3.80;2.50;;;3.80;84.60;;;;;;5076640;28;20173;-80
2021/04/08 03:14:09;;;;;;;7.10;2.90;;;3.80;84.20;;;;;;5076707;28;20274;-81
2021/04/08 03:16:42;;;;;;;5.57;3.22;;;3.90;84.80;;;;;;5078070;28;20175;-80
2021/04/08 03:19:14;;;;;;;10.90;3.45;;;3.80;85.30;;;;;;5077934;28;20255;-81
2021/04/08 03:21:42;;;;;;;10.95;3.10;;;3.90;84.50;;;;;;5075829;28;20169;-81
2021/04/08 03:24:09;;;;;;;12.23;2.83;;;3.80;85.50;;;;;;5075135;28;20640;-80
2021/04/08 03:26:35;;;;;;;8.98;3.33;;;3.80;85.50;;;;;;5075436;28;20176;-81
2021/04/08 03:29:02;;;;;;;4.95;3.10;;;3.80;84.90;;;;;;5076596;28;20200;-81
2021/04/08 03:31:28;;;;;;;8.18;3.08;;;3.80;85.80;;;;;;5075979;28;20169;-81
2021/04/08 03:33:55;;;;;;;5.88;2.95;;;3.80;86.20;;;;;;5076245;28;20541;-81
2021/04/08 03:36:22;;;;;;;8.65;2.75;;;3.80;86.00;;;;;;5075787;28;20164;-80
2021/04/08 03:38:48;;;;;;;5.03;2.90;;;3.90;87.00;;;;;;5075607;28;20195;-81
2021/04/08 03:41:16;;;;;;;12.95;3.40;;;3.90;87.30;;;;;;5077090;28;20179;-80
2021/04/08 03:43:44;;;;;;;8.13;2.75;;;3.90;87.10;;;;;;5076084;28;20576;-80
2021/04/08 03:46:11;;;;;;;8.05;3.83;;;3.90;87.30;;;;;;5075730;28;20679;-80
2021/04/08 03:48:39;;;;;;;8.55;3.45;;;4.00;87.60;;;;;;5076695;28;20246;-79
2021/04/08 03:51:06;;;;;;;5.72;3.33;;;4.10;87.10;;;;;;5075974;28;20597;-79
2021/04/08 03:53:33;;;;;;;6.68;3.60;;;4.20;86.90;;;;;;5076606;28;20569;-79
2021/04/08 03:56:00;;;;;;;11.45;3.15;;;4.20;86.60;;;;;;5076406;28;20173;-80
2021/04/08 03:58:27;;;;;;;14.23;2.65;;;4.20;86.60;;;;;;5076487;28;20220;-80
2021/04/08 04:00:53;;;;;;;7.43;3.33;;;4.20;85.90;;;;;;5076748;28;20196;-80
2021/04/08 04:03:20;;;;;;;6.88;3.20;;;4.20;85.90;;;;;;5075609;28;20212;-80
2021/04/08 04:05:46;;;;;;;7.40;3.45;;;4.20;86.40;;;;;;5076192;28;20357;-79
2021/04/08 04:08:12;;;;;;;6.20;3.13;;;4.20;86.30;;;;;;5075980;28;20204;-80
2021/04/08 04:10:39;;;;;;;5.15;3.05;;;4.20;86.20;;;;;;5075915;28;20263;-80
2021/04/08 04:13:06;;;;;;;9.30;3.40;;;4.10;86.40;;;;;;5076438;28;20220;-80
2021/04/08 04:15:34;;;;;;;5.40;3.38;;;4.10;85.90;;;;;;5076042;28;20196;-80
2021/04/08 04:18:05;;;;;;;5.88;3.70;;;4.10;86.20;;;;;;5076340;28;20176;-80
2021/04/08 04:20:31;;;;;;;11.52;3.17;;;4.10;86.40;;;;;;5076444;28;20703;-80
2021/04/08 04:22:57;;;;;;;9.27;3.13;;;4.10;86.20;;;;;;5076475;28;20262;-80
2021/04/08 04:25:23;;;;;;;10.23;4.23;;;4.20;86.30;;;;;;5077089;28;20176;-80
2021/04/08 04:27:48;;;;;;;8.77;3.27;;;4.10;86.00;;;;;;5076569;28;22406;-80
2021/04/08 04:30:15;;;;;;;8.27;3.13;;;4.10;86.30;;;;;;5076474;28;20415;-80
2021/04/08 04:32:40;;;;;;;9.20;4.05;;;4.00;86.00;;;;;;5076754;28;20466;-84
2021/04/08 04:35:07;;;;;;;8.33;3.83;;;4.00;85.90;;;;;;5079341;28;20168;-80
2021/04/08 04:37:33;;;;;;;7.68;3.95;;;3.90;85.90;;;;;;5077183;28;20381;-81
2021/04/08 04:39:59;;;;;;;10.68;3.15;;;3.90;86.00;;;;;;5077083;28;20271;-80
2021/04/08 04:42:25;;;;;;;9.17;3.40;;;3.90;86.30;;;;;;5076213;28;20717;-80
2021/04/08 04:44:50;;;;;;;9.90;4.53;;;3.90;86.90;;;;;;5114876;22;20490;-79
2021/04/08 04:47:16;;;;;;;10.80;4.70;;;3.80;86.90;;;;;;4988901;28;20179;-79
2021/04/08 04:49:42;;;;;;;4.80;3.00;;;3.80;87.00;;;;;;4990251;28;20863;-78
2021/04/08 04:52:08;;;;;;;7.73;3.10;;;3.90;86.70;;;;;;4988662;28;20503;-79
2021/04/08 04:54:34;;;;;;;5.80;3.40;;;3.90;86.40;;;;;;4992555;28;20501;-80
2021/04/08 04:57:00;;;;;;;7.47;3.42;;;3.90;86.30;;;;;;4993290;28;20175;-79
2021/04/08 04:59:25;;;;;;;5.73;2.83;;;3.90;86.00;;;;;;4992733;28;20217;-78
2021/04/08 05:01:51;;;;;;;3.73;3.00;;;3.80;85.30;;;;;;4992564;28;20240;-76
2021/04/08 05:04:17;;;;;;;7.90;3.78;;;3.90;85.80;;;;;;4994686;28;20191;-78
2021/04/08 05:06:43;;;;;;;10.40;4.50;;;3.90;85.10;;;;;;4993431;28;20175;-79
2021/04/08 05:09:09;;;;;;;8.73;3.70;;;4.00;86.40;;;;;;4992834;28;20210;-78
2021/04/08 05:11:34;;;;;;;13.03;4.07;;;4.00;87.40;;;;;;4992005;28;20171;-79
2021/04/08 05:14:00;;;;;;;8.03;3.50;;;3.90;88.10;;;;;;4992260;28;20176;-79
2021/04/08 05:16:26;;;;;;;10.77;4.28;;;4.00;86.70;;;;;;4992556;28;20393;-79
2021/04/08 05:18:52;;;;;;;11.07;3.42;;;4.10;87.00;;;;;;4992564;28;20750;-79
2021/04/08 05:21:18;;;;;;;9.93;3.67;;;4.10;85.50;;;;;;4991931;28;20679;-79
2021/04/08 05:23:44;;;;;;;11.90;3.17;;;4.10;83.30;;;;;;4991734;28;20438;-79
2021/04/08 05:26:09;;;;;;;10.50;3.80;;;4.10;82.80;;;;;;4993535;28;20171;-78
2021/04/08 05:28:35;;;;;;;10.57;4.17;;;4.10;83.00;;;;;;4992248;28;20200;-78
2021/04/08 05:31:01;;;;;;;10.33;4.50;;;4.10;82.60;;;;;;4992041;28;20186;-78
2021/04/08 05:33:27;;;;;;;7.83;3.70;;;4.10;84.10;;;;;;4990845;28;20437;-78
2021/04/08 05:35:52;;;;;;;8.83;3.43;;;4.10;80.80;;;;;;4992061;28;20411;-78
2021/04/08 05:38:18;;;;;;;12.03;4.50;;;4.10;80.30;;;;;;4993192;28;20410;-78
2021/04/08 05:40:44;;;;;;;9.07;4.23;;;3.90;80.30;;;;;;4991752;28;20185;-78
2021/04/08 05:43:10;;;;;;;16.33;4.20;;;3.80;80.20;;;;;;4991703;28;20191;-77
2021/04/08 05:45:35;;;;;;;7.20;4.60;;;3.80;80.20;;;;;;4991680;28;20202;-78
2021/04/08 05:48:01;;;;;;;9.23;3.97;;;3.90;79.80;;;;;;4991587;28;20294;-78
2021/04/08 05:50:27;;;;;;;8.97;4.87;;;3.90;78.50;;;;;;4991487;28;20780;-78
2021/04/08 05:52:53;;;;;;;11.13;4.30;;;3.90;78.90;;;;;;4991447;28;20659;-78
2021/04/08 05:55:19;;;;;;;9.10;5.00;;;3.90;78.90;;;;;;4991348;28;20414;-78
2021/04/08 05:57:44;;;;;;;9.30;3.60;;;3.90;79.60;;;;;;4991989;28;20175;-78
2021/04/08 06:00:12;;;;;;;11.40;4.90;;;4.00;79.90;;;;;;4991794;28;20415;-78
2021/04/08 06:02:38;;;;;;;11.15;4.65;;;4.10;80.60;;;;;;4991320;28;20417;-78
2021/04/08 06:05:06;;;;;;;8.30;3.67;;;4.10;77.60;;;;;;4991028;28;20176;-78
2021/04/08 06:07:32;;;;;;;11.35;4.22;;;4.10;79.20;;;;;;4991470;28;20203;-78
2021/04/08 06:09:57;;;;;;;9.60;4.00;;;4.10;78.50;;;;;;4991239;28;20302;-78
2021/04/08 06:12:23;;;;;;;11.10;3.97;;;4.20;79.10;;;;;;4991078;28;20191;-78
2021/04/08 06:14:50;;;;;;;9.30;4.18;;;4.20;78.80;;;;;;4991404;28;20442;-78
2021/04/08 06:17:16;;;;;;;10.35;3.83;;;4.20;78.30;;;;;;4991307;28;20187;-78
2021/04/08 06:19:43;;;;;;;7.50;3.20;;;4.20;78.70;;;;;;4991701;28;20179;-79
2021/04/08 06:22:10;;;;;;;10.05;3.00;;;4.30;77.40;;;;;;4991271;28;20290;-79
2021/04/08 06:24:36;;;;;;;5.88;3.95;;;4.30;77.80;;;;;;4991253;28;20589;-78
2021/04/08 06:27:02;;;;;;;15.75;3.75;;;4.30;77.60;;;;;;4991265;28;20179;-79
2021/04/08 06:29:27;;;;;;;9.02;3.80;;;4.40;78.10;;;;;;4991147;28;20199;-78
2021/04/08 06:31:53;;;;;;;7.13;3.17;;;4.50;77.70;;;;;;4990684;28;20191;-78
2021/04/08 06:34:19;;;;;;;5.65;3.15;;;4.50;76.20;;;;;;4991066;28;20934;-78
2021/04/08 06:36:46;;;;;;;9.33;3.77;;;4.60;76.70;;;;;;4990983;28;20233;-78
2021/04/08 06:39:12;;;;;;;15.63;3.65;;;4.70;75.90;;;;;;4991016;28;20415;-78
2021/04/08 06:41:39;;;;;;;7.53;4.00;;;4.70;75.60;;;;;;4990649;28;20252;-78
2021/04/08 06:44:13;;;;;;;13.13;3.22;;;4.80;75.90;;;;;;4990998;28;20929;-79
2021/04/08 06:46:43;;;;;;;22.10;3.97;;;4.90;73.90;;;;;;4990847;28;20183;-79
2021/04/08 06:49:20;;;;;;;10.15;3.40;;;4.90;74.10;;;;;;4990867;28;20685;-79
2021/04/08 06:51:53;;;;;;;10.73;4.70;;;4.90;73.50;;;;;;4990496;28;20186;-79
2021/04/08 06:54:20;;;;;;;13.27;4.30;;;5.00;73.50;;;;;;4990762;28;20194;-79
2021/04/08 06:56:46;;;;;;;9.43;4.40;;;5.00;73.30;;;;;;4990590;28;20182;-80
2021/04/08 06:59:14;;;;;;;10.90;4.15;;;5.10;72.40;;;;;;4990754;28;20179;-78
2021/04/08 07:01:41;;;;;;;9.90;5.45;;;5.10;72.80;;;;;;4990390;28;20187;-79
2021/04/08 07:04:10;;;;;;;14.27;6.32;;;5.30;70.90;;;;;;4990725;28;20668;-78
2021/04/08 07:06:36;;;;;;;7.53;4.60;;;5.30;70.80;;;;;;4990263;28;20202;-78
2021/04/08 07:09:04;;;;;;;10.23;5.10;;;5.40;67.70;;;;;;4990398;28;20597;-78
2021/04/08 07:11:32;;;;;;;11.68;5.13;;;5.50;68.10;;;;;;4990423;28;20419;-78
2021/04/08 07:14:00;;;;;;;8.40;4.30;;;5.60;63.90;;;;;;4990738;28;20840;-79
2021/04/08 07:16:25;;;;;;;12.60;4.50;;;5.70;66.90;;;;;;4989509;28;20175;-79
2021/04/08 07:18:53;;;;;;;7.47;3.97;;;5.80;65.50;;;;;;4990580;28;20176;-79
2021/04/08 07:21:20;;;;;;;13.27;5.10;;;5.80;63.30;;;;;;4990759;28;20187;-80
2021/04/08 07:24:10;;;;;;;8.50;5.25;;;5.80;64.90;;;;;;4990378;28;20206;-79
2021/04/08 07:26:56;;;;;;;11.27;4.32;;;5.80;64.10;;;;;;4990376;28;20537;-79
2021/04/08 07:29:39;;;;;;;9.82;5.55;;;5.80;63.90;;;;;;4990153;28;20203;-79
2021/04/08 07:32:21;;;;;;;7.20;4.10;;;5.80;63.90;;;;;;4990019;28;20687;-79
2021/04/08 07:34:53;;;;;;;10.73;5.20;;;5.80;62.00;;;;;;4990399;28;20174;-79
2021/04/08 07:37:37;;;;;;;10.13;4.40;;;5.70;60.00;;;;;;4996930;28;20174;-80
2021/04/08 07:40:18;;;;;;;7.68;4.70;;;5.70;59.40;;;;;;4995010;28;20513;-80
2021/04/08 07:42:45;;;;;;;10.05;4.03;;;5.80;61.90;;;;;;4990704;28;20272;-79
2021/04/08 07:45:21;;;;;;;14.70;4.72;;;5.90;61.30;;;;;;4991230;28;20191;-79
2021/04/08 07:48:00;;;;;;;11.52;5.38;;;6.10;62.00;;;;;;4989913;28;20174;-79
2021/04/08 07:50:26;;;;;;;12.13;5.00;;;6.30;63.10;;;;;;4990372;28;20163;-79
2021/04/08 07:52:52;;;;;;;16.10;5.38;;;6.40;57.00;;;;;;4989905;28;20665;-79
2021/04/08 07:55:30;;;;;;;12.67;6.40;;;6.30;57.40;;;;;;4990028;28;20210;-80
2021/04/08 07:58:02;;;;;;;9.13;5.35;;;6.30;58.40;;;;;;4989791;28;20418;-80
2021/04/08 08:00:40;;;;;;;14.10;6.43;;;6.20;60.00;;;;;;4990153;28;20168;-79
2021/04/08 08:03:26;;;;;;;11.48;5.53;;;6.30;61.00;;;;;;4989918;28;20244;-79
2021/04/08 08:05:58;;;;;;;12.20;7.25;;;6.30;62.40;;;;;;4989935;28;20167;-79
2021/04/08 08:08:27;;;;;;;11.77;5.47;;;6.30;62.30;;;;;;4989784;28;20340;-78
2021/04/08 08:10:59;;;;;;;14.50;6.38;;;6.50;63.40;;;;;;4995272;28;20198;-80
2021/04/08 08:13:30;;;;;;;10.52;5.50;;;6.70;62.70;;;;;;4997204;28;20199;-80
2021/04/08 08:15:57;;;;;;;15.27;6.35;;;6.90;61.90;;;;;;4997495;28;20647;-80
2021/04/08 08:18:32;;;;;;;13.15;5.82;;;7.10;62.80;;;;;;4997076;28;20183;-80
2021/04/08 08:21:11;;;;;;;14.30;5.80;;;7.20;59.70;;;;;;4993834;28;20216;-77
2021/04/08 08:23:50;;;;;;;11.68;6.05;;;7.20;59.70;;;;;;4992131;28;20217;-80
2021/04/08 08:26:35;;;;;;;13.68;5.38;;;7.20;58.50;;;;;;4992182;28;20163;-78
2021/04/08 08:29:13;;;;;;;14.88;5.78;;;7.20;58.80;;;;;;4993963;28;20187;-79
2021/04/08 08:31:50;;;;;;;9.70;5.22;;;7.30;57.60;;;;;;4992625;28;20186;-79
2021/04/08 08:34:24;;;;;;;19.33;4.72;;;7.20;56.70;;;;;;4992917;28;20732;-78
2021/04/08 08:36:52;;;;;;;14.75;5.55;;;7.20;56.30;;;;;;4992786;28;20171;-79
2021/04/08 08:39:23;;;;;;;11.07;5.10;;;7.10;56.30;;;;;;4993038;28;20187;-79
2021/04/08 08:41:50;;;;;;;7.75;5.15;;;7.10;54.90;;;;;;4992665;28;20575;-78
2021/04/08 08:44:17;;;;;;;12.90;5.03;;;7.10;56.00;;;;;;4992593;28;20197;-78
2021/04/08 08:46:52;;;;;;;10.02;5.10;;;7.20;55.90;;;;;;4993567;28;20164;-78
2021/04/08 08:49:44;;;;;;;11.25;4.40;;;7.20;55.90;;;;;;4992829;28;20206;-80
2021/04/08 08:52:16;;;;;;;11.75;4.07;;;7.30;55.70;;;;;;5000710;28;20235;-79
2021/04/08 08:54:42;;;;;;;13.65;5.03;;;7.30;56.40;;;;;;4992593;28;20649;-79
2021/04/08 08:57:08;;;;;;;7.30;5.53;;;7.40;57.10;;;;;;4992505;28;20186;-79
2021/04/08 08:59:34;;;;;;;10.23;4.65;;;7.50;56.00;;;;;;4992525;28;20187;-79
2021/04/08 09:02:00;;;;;;;6.70;4.70;;;7.50;54.30;;;;;;4993839;28;20192;-78
2021/04/08 09:04:28;;;;;;;12.75;4.80;;;7.40;52.60;;;;;;4999142;28;20485;-81
2021/04/08 09:06:59;;;;;;;9.07;4.22;;;7.30;54.70;;;;;;4999388;28;20175;-81
2021/04/08 09:09:32;;;;;;;7.05;4.20;;;7.30;55.70;;;;;;4999651;28;20421;-81
2021/04/08 09:12:04;;;;;;;9.13;3.90;;;7.20;55.00;;;;;;4999152;28;20202;-82
2021/04/08 09:14:32;;;;;;;7.30;4.25;;;7.30;55.30;;;;;;4998620;28;20247;-83
2021/04/08 09:16:58;;;;;;;8.70;4.70;;;7.40;54.20;;;;;;4998954;28;20175;-82
2021/04/08 09:19:34;;;;;;;9.95;3.55;;;7.30;53.60;;;;;;4998389;28;20197;-84
2021/04/08 09:22:09;;;;;;;8.70;4.35;;;7.40;52.50;;;;;;4998011;28;20553;-81
2021/04/08 09:24:45;;;;;;;10.43;4.07;;;7.40;54.10;;;;;;4997995;28;20163;-81
2021/04/08 09:27:11;;;;;;;7.18;4.15;;;7.70;54.30;;;;;;4998882;28;20183;-82
2021/04/08 09:29:39;;;;;;;10.45;4.40;;;8.10;53.40;;;;;;4999984;28;20199;-82
2021/04/08 09:32:28;;;;;;;6.85;3.95;;;8.30;51.50;;;;;;4999339;28;20667;-82
2021/04/08 09:35:06;;;;;;;13.13;4.78;;;8.20;50.40;;;;;;4999567;28;20164;-82
2021/04/08 09:37:44;;;;;;;13.05;4.43;;;8.00;50.90;;;;;;4999485;28;20198;-82
2021/04/08 09:40:28;;;;;;;6.15;3.30;;;7.70;52.20;;;;;;4996203;28;20179;-79
2021/04/08 09:43:00;;;;;;;5.85;3.65;;;7.80;54.20;;;;;;4994259;28;20286;-81
2021/04/08 09:45:26;;;;;;;8.25;4.22;;;7.80;53.40;;;;;;4995996;28;20218;-80
2021/04/08 09:48:12;;;;;;;7.18;3.80;;;7.90;53.20;;;;;;4998270;28;20167;-80
2021/04/08 09:50:44;;;;;;;11.05;5.38;;;8.00;52.80;;;;;;4997941;28;20171;-81
2021/04/08 09:53:10;;;;;;;8.05;3.70;;;8.10;51.60;;;;;;4997933;28;20600;-80
2021/04/08 09:55:36;;;;;;;7.45;3.25;;;8.20;51.90;;;;;;4998607;28;20235;-82
2021/04/08 09:58:04;;;;;;;11.07;3.77;;;8.10;50.30;;;;;;4998980;28;20221;-82
2021/04/08 10:00:30;;;;;;;14.35;4.57;;;7.90;50.00;;;;;;4997965;28;20483;-82
2021/04/08 10:03:05;;;;;;;8.10;4.00;;;7.90;52.00;;;;;;4998569;28;20606;-83
2021/04/08 10:05:32;;;;;;;16.35;4.78;;;8.00;51.60;;;;;;4998778;28;20196;-83
2021/04/08 10:07:59;;;;;;;21.63;4.55;;;8.10;51.30;;;;;;4999034;28;20229;-82
2021/04/08 10:10:37;;;;;;;5.60;3.40;;;8.00;53.40;;;;;;4998654;28;20179;-83
2021/04/08 10:13:16;;;;;;;14.77;4.90;;;8.10;53.60;;;;;;4998627;28;20233;-83
2021/04/08 10:15:42;;;;;;;24.17;5.10;;;8.30;53.80;;;;;;4998916;28;20171;-83
2021/04/08 10:18:19;;;;;;;7.65;3.80;;;8.40;52.40;;;;;;4998624;28;20179;-83
2021/04/08 10:20:49;;;;;;;12.30;4.72;;;8.30;53.20;;;;;;4998796;28;20199;-82
2021/04/08 10:23:35;;;;;;;9.15;5.05;;;8.40;53.30;;;;;;4998134;28;20195;-82
2021/04/08 10:26:09;;;;;;;11.13;5.20;;;8.00;53.30;;;;;;4997979;28;20203;-82
2021/04/08 10:28:40;;;;;;;7.78;4.63;;;7.80;53.60;;;;;;4997872;28;20622;-83
2021/04/08 10:31:28;;;;;;;10.50;4.70;;;7.80;54.10;;;;;;4997362;28;20193;-86
2021/04/08 10:33:57;;;;;;;30.85;5.03;;;7.80;53.80;;;;;;4997440;28;20258;-82
2021/04/08 10:36:55;;;;;;;9.70;4.97;;;7.80;53.70;;;;;;4997855;28;20214;-82
2021/04/08 10:39:29;;;;;;;10.57;4.63;;;7.70;52.80;;;;;;4997994;28;20183;-83
2021/04/08 10:42:11;;;;;;;12.43;4.38;;;7.60;53.60;;;;;;4997077;28;20273;-82
2021/04/08 10:44:44;;;;;;;6.05;4.03;;;7.70;54.30;;;;;;4997810;28;20191;-84
2021/04/08 10:47:20;;;;;;;10.45;4.53;;;7.70;52.60;;;;;;5046440;23;20369;-86
2021/04/08 10:49:55;;;;;;;11.65;5.35;;;7.90;52.60;;;;;;4974328;28;20274;-85
2021/04/08 10:52:35;;;;;;;10.25;4.05;;;8.20;52.40;;;;;;4975300;28;20191;-85
2021/04/08 10:55:12;;;;;;;11.70;5.35;;;8.30;52.10;;;;;;4973670;28;20175;-86
2021/04/08 10:57:38;;;;;;;10.70;4.85;;;8.40;51.20;;;;;;4973573;28;20551;-85
2021/04/08 11:00:05;;;;;;;12.45;4.90;;;8.50;50.70;;;;;;4973703;28;20211;-84
2021/04/08 11:02:39;;;;;;;8.88;4.43;;;8.30;51.50;;;;;;4974517;28;20225;-85
2021/04/08 11:05:08;;;;;;;14.20;5.82;;;8.10;52.00;;;;;;4973512;28;20662;-85
2021/04/08 11:07:39;;;;;;;11.05;5.05;;;7.90;52.80;;;;;;4973800;28;20172;-86
2021/04/08 11:10:09;;;;;;;15.68;6.28;;;7.80;53.70;;;;;;4973513;28;20196;-86
2021/04/08 11:12:35;;;;;;;16.17;6.53;;;7.70;53.00;;;;;;4973051;28;20345;-86
2021/04/08 11:15:02;;;;;;;17.25;5.35;;;7.80;53.90;;;;;;4972969;28;20172;-86
2021/04/08 11:17:29;;;;;;;18.10;6.15;;;7.90;52.60;;;;;;4972485;28;20172;-86
2021/04/08 11:19:57;;;;;;;19.33;6.63;;;8.00;53.60;;;;;;4973250;28;20187;-86
2021/04/08 11:22:26;;;;;;;9.35;5.28;;;8.10;52.50;;;;;;4973079;28;20200;-86
2021/04/08 11:24:54;;;;;;;9.88;5.90;;;8.20;52.40;;;;;;4972929;28;20184;-85
2021/04/08 11:27:36;;;;;;;13.32;6.38;;;8.40;52.90;;;;;;4972693;28;20176;-86
2021/04/08 11:30:05;;;;;;;11.00;5.93;;;8.70;52.00;;;;;;4972920;28;20214;-86
2021/04/08 11:32:30;;;;;;;10.55;7.15;;;9.10;51.20;;;;;;4972436;28;20238;-86
2021/04/08 11:34:58;;;;;;;11.93;5.70;;;9.20;50.30;;;;;;4972743;28;20172;-86
2021/04/08 11:38:22;;;;;;;8.60;4.97;;;9.40;49.50;;;;;;4973000;28;20416;-85
2021/04/08 11:41:01;;;;;;;15.48;5.28;;;9.40;48.60;;;;;;4957452;28;20718;-84
2021/04/08 11:43:33;;;;;;;10.18;4.75;;;9.30;49.00;;;;;;4974209;28;20210;-86
2021/04/08 11:46:03;;;;;;;13.05;5.28;;;9.60;47.70;;;;;;4973671;28;20222;-85
2021/04/08 11:48:44;;;;;;;12.88;5.50;;;9.90;48.80;;;;;;4973481;28;20192;-85
2021/04/08 11:51:11;;;;;;;15.10;6.00;;;10.10;47.80;;;;;;4976626;28;20176;-84
2021/04/08 11:53:39;;;;;;;14.52;4.75;;;10.20;46.90;;;;;;4978899;28;20192;-85
2021/04/08 11:56:25;;;;;;;6.78;3.80;;;10.30;49.20;;;;;;4975605;28;20635;-85
2021/04/08 11:58:51;;;;;;;11.20;4.88;;;10.10;46.90;;;;;;4973238;28;20172;-85
2021/04/08 12:01:18;;;;;;;8.83;3.90;;;10.10;46.60;;;;;;4972531;28;20190;-84
2021/04/08 12:03:47;;;;;;;14.55;4.85;;;10.00;46.70;;;;;;4972270;28;20443;-84
2021/04/08 12:06:17;;;;;;;13.45;4.15;;;10.00;46.00;;;;;;4974890;28;20176;-86
2021/04/08 12:08:51;;;;;;;7.45;3.30;;;10.00;47.30;;;;;;4974555;28;20192;-85
2021/04/08 12:11:18;;;;;;;8.15;3.25;;;10.10;46.20;;;;;;4972431;28;20620;-85
2021/04/08 12:13:58;;;;;;;8.65;4.20;;;10.20;45.00;;;;;;4973182;28;20191;-85
2021/04/08 12:16:25;;;;;;;7.32;2.92;;;10.20;43.20;;;;;;4971815;28;20172;-86
2021/04/08 12:18:52;;;;;;;8.20;3.70;;;10.30;43.20;;;;;;4972364;28;20184;-85
2021/04/08 12:21:19;;;;;;;6.50;3.22;;;10.50;44.00;;;;;;4972139;28;20255;-84
2021/04/08 12:23:46;;;;;;;5.25;3.33;;;10.70;42.90;;;;;;4972409;28;20203;-84
2021/04/08 12:26:12;;;;;;;13.35;4.43;;;10.80;44.00;;;;;;4972300;28;20206;-85
2021/04/08 12:28:42;;;;;;;7.15;3.78;;;11.10;45.70;;;;;;4972665;28;20191;-85
2021/04/08 12:31:09;;;;;;;6.32;3.30;;;11.40;42.60;;;;;;4972317;28;20179;-85
2021/04/08 12:33:38;;;;;;;12.70;3.25;;;11.70;42.00;;;;;;4972274;28;20249;-84
2021/04/08 12:36:07;;;;;;;5.13;3.28;;;11.90;41.50;;;;;;4971618;28;20262;-84
2021/04/08 12:38:33;;;;;;;8.73;3.42;;;12.00;42.20;;;;;;4972876;28;20182;-84
2021/04/08 12:41:00;;;;;;;9.55;3.65;;;12.30;41.90;;;;;;4972558;28;20547;-84
2021/04/08 12:43:27;;;;;;;8.98;3.90;;;12.40;40.30;;;;;;4971994;28;20610;-85
2021/04/08 12:45:53;;;;;;;4.43;3.30;;;12.10;42.60;;;;;;4972372;28;20216;-85
2021/04/08 12:48:19;;;;;;;9.17;3.83;;;12.10;42.30;;;;;;4972146;28;20197;-84
2021/04/08 12:50:47;;;;;;;9.93;3.40;;;12.00;41.80;;;;;;4972428;28;20487;-85
2021/04/08 12:53:13;;;;;;;6.40;3.33;;;11.80;42.00;;;;;;4971901;28;20803;-85
2021/04/08 12:55:40;;;;;;;10.15;3.53;;;11.70;42.60;;;;;;4972243;28;20195;-85
2021/04/08 12:58:06;;;;;;;6.95;3.80;;;11.60;43.30;;;;;;4972411;28;20172;-85
2021/04/08 13:00:33;;;;;;;9.63;3.50;;;11.70;42.90;;;;;;4972104;28;20180;-85
2021/04/08 13:02:59;;;;;;;5.88;3.00;;;11.80;44.90;;;;;;4971877;28;20196;-85
2021/04/08 13:05:25;;;;;;;8.77;3.05;;;12.00;41.20;;;;;;4971905;28;20182;-85